Cavan, Ireland
Current Conditions -  °F | °C
As of 4:30 PM on Friday 19 Dec 2014 (Local Time) from EISG Reporting Station
Moderate Rain Moderate Rain  
Wind Chill:   Ceiling: 3000
Heat Index:   Visibility: 3mi
Dew Point:   Wind: 23mph
Humidity: 81%   Direction: 260°W
Pressure: 30"   Gusts: NA
Location:  54°N, 7.37°W
Report Text: EISG 191630Z 26020KT 5000 RA BKN030 OVC037 07/04 Q1016
Loading
Personal Weather Stations






























Interactive Weather Map New forecast layout! Learn more

10-Day Weather Forecast

Advertisements
Track Severe Weather on mobile